sensor_id;sensor_type;location;lat;lon;timestamp;pressure;altitude;pressure_sealevel;temperature;humidity
70555;BME280;58104;52.744;15.242;2023-03-18T00:00:35;100557.25;;;20.01;33.61
70555;BME280;58104;52.744;15.242;2023-03-18T00:03:01;100561.30;;;20.05;33.66
70555;BME280;58104;52.744;15.242;2023-03-18T00:05:26;100563.67;;;20.03;33.71
70555;BME280;58104;52.744;15.242;2023-03-18T00:07:51;100562.06;;;20.02;33.76
70555;BME280;58104;52.744;15.242;2023-03-18T00:10:17;100566.21;;;20.01;33.84
70555;BME280;58104;52.744;15.242;2023-03-18T00:12:42;100567.33;;;19.97;33.96
70555;BME280;58104;52.744;15.242;2023-03-18T00:15:10;100571.93;;;20.03;33.93
70555;BME280;58104;52.744;15.242;2023-03-18T00:17:33;100578.15;;;20.05;33.90
70555;BME280;58104;52.744;15.242;2023-03-18T00:19:58;100580.65;;;20.14;33.92
70555;BME280;58104;52.744;15.242;2023-03-18T00:22:24;100583.51;;;20.02;34.10
70555;BME280;58104;52.744;15.242;2023-03-18T00:24:49;100584.64;;;20.13;34.02
70555;BME280;58104;52.744;15.242;2023-03-18T00:27:15;100572.46;;;20.21;33.96
70555;BME280;58104;52.744;15.242;2023-03-18T00:29:40;100574.21;;;20.13;34.09
70555;BME280;58104;52.744;15.242;2023-03-18T00:32:06;100573.95;;;20.11;34.11
70555;BME280;58104;52.744;15.242;2023-03-18T00:34:31;100567.11;;;20.16;34.21
70555;BME280;58104;52.744;15.242;2023-03-18T00:36:56;100562.10;;;20.10;34.19
70555;BME280;58104;52.744;15.242;2023-03-18T00:39:22;100558.86;;;20.08;34.33
70555;BME280;58104;52.744;15.242;2023-03-18T00:41:47;100557.08;;;20.11;34.35
70555;BME280;58104;52.744;15.242;2023-03-18T00:44:13;100555.01;;;20.07;34.42
70555;BME280;58104;52.744;15.242;2023-03-18T00:46:38;100553.10;;;20.14;34.40
70555;BME280;58104;52.744;15.242;2023-03-18T00:49:06;100548.43;;;20.12;34.47
70555;BME280;58104;52.744;15.242;2023-03-18T00:51:31;100549.08;;;20.12;34.42
70555;BME280;58104;52.744;15.242;2023-03-18T00:53:56;100545.35;;;20.13;34.50
70555;BME280;58104;52.744;15.242;2023-03-18T00:56:22;100543.62;;;20.11;34.53
70555;BME280;58104;52.744;15.242;2023-03-18T00:58:46;100538.96;;;20.15;34.53
70555;BME280;58104;52.744;15.242;2023-03-18T01:01:11;100537.11;;;20.13;34.58
70555;BME280;58104;52.744;15.242;2023-03-18T01:03:36;100531.00;;;20.21;34.51
70555;BME280;58104;52.744;15.242;2023-03-18T01:06:02;100525.76;;;20.08;34.57
70555;BME280;58104;52.744;15.242;2023-03-18T01:08:27;100531.19;;;20.12;34.76
70555;BME280;58104;52.744;15.242;2023-03-18T01:10:52;100529.86;;;20.04;34.92
70555;BME280;58104;52.744;15.242;2023-03-18T01:13:17;100527.79;;;20.07;35.03
70555;BME280;58104;52.744;15.242;2023-03-18T01:15:44;100524.33;;;20.15;35.01
70555;BME280;58104;52.744;15.242;2023-03-18T01:18:08;100524.71;;;20.10;35.01
70555;BME280;58104;52.744;15.242;2023-03-18T01:20:34;100512.69;;;20.10;34.99
70555;BME280;58104;52.744;15.242;2023-03-18T01:22:59;100514.06;;;20.19;34.98
70555;BME280;58104;52.744;15.242;2023-03-18T01:25:25;100516.63;;;20.07;35.12
70555;BME280;58104;52.744;15.242;2023-03-18T01:27:50;100515.47;;;20.05;35.21
70555;BME280;58104;52.744;15.242;2023-03-18T01:30:16;100518.71;;;19.96;35.32
70555;BME280;58104;52.744;15.242;2023-03-18T01:32:41;100514.35;;;20.01;35.40
70555;BME280;58104;52.744;15.242;2023-03-18T01:35:08;100510.83;;;20.07;35.39
70555;BME280;58104;52.744;15.242;2023-03-18T01:37:32;100509.82;;;20.05;35.44
70555;BME280;58104;52.744;15.242;2023-03-18T01:39:58;100507.99;;;20.04;35.53
70555;BME280;58104;52.744;15.242;2023-03-18T01:42:23;100507.71;;;20.05;35.50
70555;BME280;58104;52.744;15.242;2023-03-18T01:44:49;100504.60;;;20.01;35.50
70555;BME280;58104;52.744;15.242;2023-03-18T01:47:14;100505.77;;;20.03;35.53
70555;BME280;58104;52.744;15.242;2023-03-18T01:49:41;100502.55;;;20.08;35.54
70555;BME280;58104;52.744;15.242;2023-03-18T01:52:06;100494.75;;;20.05;35.59
70555;BME280;58104;52.744;15.242;2023-03-18T01:54:33;100495.67;;;20.09;35.51
70555;BME280;58104;52.744;15.242;2023-03-18T01:56:55;100497.51;;;20.15;35.48
70555;BME280;58104;52.744;15.242;2023-03-18T01:59:24;100496.93;;;20.20;35.49
70555;BME280;58104;52.744;15.242;2023-03-18T02:01:49;100488.27;;;20.05;35.65
70555;BME280;58104;52.744;15.242;2023-03-18T02:04:12;100489.15;;;20.04;35.58
70555;BME280;58104;52.744;15.242;2023-03-18T02:06:38;100489.42;;;20.10;35.53
70555;BME280;58104;52.744;15.242;2023-03-18T02:09:03;100487.64;;;20.04;35.67
70555;BME280;58104;52.744;15.242;2023-03-18T02:11:30;100487.01;;;20.04;35.64
70555;BME280;58104;52.744;15.242;2023-03-18T02:13:53;100479.62;;;20.09;35.64
70555;BME280;58104;52.744;15.242;2023-03-18T02:16:23;100479.27;;;20.04;35.70
70555;BME280;58104;52.744;15.242;2023-03-18T02:18:48;100483.63;;;20.11;35.56
70555;BME280;58104;52.744;15.242;2023-03-18T02:21:22;100480.70;;;20.17;35.49
70555;BME280;58104;52.744;15.242;2023-03-18T02:23:42;100478.67;;;20.06;35.76
70555;BME280;58104;52.744;15.242;2023-03-18T02:26:04;100477.70;;;20.26;34.93
70555;BME280;58104;52.744;15.242;2023-03-18T02:28:27;100473.38;;;20.24;34.67
70555;BME280;58104;52.744;15.242;2023-03-18T02:30:53;100469.12;;;20.27;34.94
70555;BME280;58104;52.744;15.242;2023-03-18T02:33:18;100475.12;;;20.40;34.66
70555;BME280;58104;52.744;15.242;2023-03-18T02:35:44;100470.86;;;20.50;34.56
70555;BME280;58104;52.744;15.242;2023-03-18T02:38:07;100474.76;;;20.45;34.62
70555;BME280;58104;52.744;15.242;2023-03-18T02:40:36;100477.77;;;20.46;34.62
70555;BME280;58104;52.744;15.242;2023-03-18T02:45:32;100480.21;;;20.50;34.59
70555;BME280;58104;52.744;15.242;2023-03-18T02:47:50;100484.12;;;20.41;34.65
70555;BME280;58104;52.744;15.242;2023-03-18T02:50:14;100486.64;;;20.52;34.60
70555;BME280;58104;52.744;15.242;2023-03-18T02:52:40;100487.12;;;20.53;34.62
70555;BME280;58104;52.744;15.242;2023-03-18T02:55:06;100487.85;;;20.53;34.57
70555;BME280;58104;52.744;15.242;2023-03-18T02:57:31;100485.14;;;20.57;34.54
70555;BME280;58104;52.744;15.242;2023-03-18T02:59:56;100499.68;;;20.52;34.66
70555;BME280;58104;52.744;15.242;2023-03-18T03:02:22;100509.63;;;20.48;34.73
70555;BME280;58104;52.744;15.242;2023-03-18T03:04:47;100506.26;;;20.43;34.79
70555;BME280;58104;52.744;15.242;2023-03-18T03:07:12;100504.39;;;20.41;34.89
70555;BME280;58104;52.744;15.242;2023-03-18T03:09:38;100512.46;;;20.41;34.88
70555;BME280;58104;52.744;15.242;2023-03-18T03:12:04;100510.79;;;20.38;34.86
70555;BME280;58104;52.744;15.242;2023-03-18T03:14:29;100516.50;;;20.48;34.93
70555;BME280;58104;52.744;15.242;2023-03-18T03:16:55;100505.26;;;20.45;34.89
70555;BME280;58104;52.744;15.242;2023-03-18T03:19:20;100505.20;;;20.26;35.12
70555;BME280;58104;52.744;15.242;2023-03-18T03:21:46;100504.16;;;20.21;35.21
70555;BME280;58104;52.744;15.242;2023-03-18T03:24:11;100506.98;;;20.14;35.37
70555;BME280;58104;52.744;15.242;2023-03-18T03:26:36;100504.45;;;20.16;35.29
70555;BME280;58104;52.744;15.242;2023-03-18T03:29:02;100506.70;;;20.15;35.36
70555;BME280;58104;52.744;15.242;2023-03-18T03:31:27;100496.42;;;20.12;35.41
70555;BME280;58104;52.744;15.242;2023-03-18T03:33:53;100503.29;;;20.20;35.36
70555;BME280;58104;52.744;15.242;2023-03-18T03:36:18;100503.04;;;20.09;35.51
70555;BME280;58104;52.744;15.242;2023-03-18T03:38:44;100502.77;;;20.22;35.52
70555;BME280;58104;52.744;15.242;2023-03-18T03:41:11;100493.51;;;20.22;35.36
70555;BME280;58104;52.744;15.242;2023-03-18T03:43:35;100498.73;;;20.20;35.32
70555;BME280;58104;52.744;15.242;2023-03-18T03:46:00;100495.60;;;20.30;35.31
70555;BME280;58104;52.744;15.242;2023-03-18T03:48:25;100503.47;;;20.35;35.31
70555;BME280;58104;52.744;15.242;2023-03-18T03:50:51;100501.49;;;20.18;35.55
70555;BME280;58104;52.744;15.242;2023-03-18T03:53:16;100501.01;;;20.29;35.61
70555;BME280;58104;52.744;15.242;2023-03-18T03:55:42;100494.15;;;20.37;35.61
70555;BME280;58104;52.744;15.242;2023-03-18T03:58:07;100507.45;;;20.27;35.72
70555;BME280;58104;52.744;15.242;2023-03-18T04:00:33;100509.07;;;20.36;35.66
70555;BME280;58104;52.744;15.242;2023-03-18T04:02:58;100502.65;;;20.25;35.88
70555;BME280;58104;52.744;15.242;2023-03-18T04:05:24;100499.38;;;20.24;36.00
70555;BME280;58104;52.744;15.242;2023-03-18T04:07:49;100504.05;;;20.19;36.09
70555;BME280;58104;52.744;15.242;2023-03-18T04:10:16;100503.73;;;20.12;36.24
70555;BME280;58104;52.744;15.242;2023-03-18T04:12:40;100498.71;;;20.15;36.25
70555;BME280;58104;52.744;15.242;2023-03-18T04:15:07;100504.39;;;20.14;36.27
70555;BME280;58104;52.744;15.242;2023-03-18T04:17:31;100508.32;;;20.15;36.22
70555;BME280;58104;52.744;15.242;2023-03-18T04:19:56;100510.93;;;20.16;36.32
70555;BME280;58104;52.744;15.242;2023-03-18T04:22:21;100507.23;;;20.09;36.50
70555;BME280;58104;52.744;15.242;2023-03-18T04:24:47;100506.92;;;20.00;36.78
70555;BME280;58104;52.744;15.242;2023-03-18T04:27:12;100508.23;;;20.10;36.84
70555;BME280;58104;52.744;15.242;2023-03-18T04:29:38;100507.47;;;19.95;36.79
70555;BME280;58104;52.744;15.242;2023-03-18T04:32:04;100511.29;;;19.98;37.09
70555;BME280;58104;52.744;15.242;2023-03-18T04:34:29;100513.37;;;20.18;36.70
70555;BME280;58104;52.744;15.242;2023-03-18T04:36:54;100518.31;;;20.20;36.73
70555;BME280;58104;52.744;15.242;2023-03-18T04:39:20;100514.88;;;20.21;36.90
70555;BME280;58104;52.744;15.242;2023-03-18T04:41:45;100510.06;;;20.06;37.29
70555;BME280;58104;52.744;15.242;2023-03-18T04:44:10;100511.17;;;19.99;37.53
70555;BME280;58104;52.744;15.242;2023-03-18T04:46:35;100513.98;;;20.09;37.41
70555;BME280;58104;52.744;15.242;2023-03-18T04:49:01;100512.42;;;20.02;37.44
70555;BME280;58104;52.744;15.242;2023-03-18T04:51:26;100516.03;;;19.90;37.41
70555;BME280;58104;52.744;15.242;2023-03-18T04:53:51;100515.54;;;19.99;37.90
70555;BME280;58104;52.744;15.242;2023-03-18T04:56:17;100516.66;;;20.07;37.81
70555;BME280;58104;52.744;15.242;2023-03-18T04:58:42;100519.54;;;20.06;37.92
70555;BME280;58104;52.744;15.242;2023-03-18T05:01:08;100516.13;;;20.15;37.86
70555;BME280;58104;52.744;15.242;2023-03-18T05:03:33;100513.28;;;20.03;38.05
70555;BME280;58104;52.744;15.242;2023-03-18T05:05:58;100507.83;;;20.07;37.95
70555;BME280;58104;52.744;15.242;2023-03-18T05:08:24;100513.89;;;20.06;38.05
70555;BME280;58104;52.744;15.242;2023-03-18T05:10:49;100514.57;;;20.09;38.08
70555;BME280;58104;52.744;15.242;2023-03-18T05:13:15;100508.46;;;20.17;38.09
70555;BME280;58104;52.744;15.242;2023-03-18T05:15:41;100506.04;;;20.06;38.18
70555;BME280;58104;52.744;15.242;2023-03-18T05:18:07;100507.44;;;20.10;38.11
70555;BME280;58104;52.744;15.242;2023-03-18T05:20:32;100514.19;;;19.97;38.24
70555;BME280;58104;52.744;15.242;2023-03-18T05:22:57;100514.38;;;20.00;38.34
70555;BME280;58104;52.744;15.242;2023-03-18T05:25:23;100516.42;;;20.04;38.49
70555;BME280;58104;52.744;15.242;2023-03-18T05:27:48;100510.77;;;20.06;38.42
70555;BME280;58104;52.744;15.242;2023-03-18T05:30:14;100512.74;;;19.98;38.41
70555;BME280;58104;52.744;15.242;2023-03-18T05:32:39;100509.55;;;20.05;38.55
70555;BME280;58104;52.744;15.242;2023-03-18T05:35:05;100509.88;;;19.99;38.49
70555;BME280;58104;52.744;15.242;2023-03-18T05:37:30;100511.32;;;20.09;38.41
70555;BME280;58104;52.744;15.242;2023-03-18T05:39:55;100511.25;;;19.97;38.59
70555;BME280;58104;52.744;15.242;2023-03-18T05:42:21;100513.32;;;19.93;38.72
70555;BME280;58104;52.744;15.242;2023-03-18T05:44:46;100517.03;;;19.89;39.36
70555;BME280;58104;52.744;15.242;2023-03-18T05:47:12;100518.22;;;19.93;39.26
70555;BME280;58104;52.744;15.242;2023-03-18T05:49:37;100519.76;;;19.99;39.13
70555;BME280;58104;52.744;15.242;2023-03-18T05:52:02;100519.09;;;19.97;39.31
70555;BME280;58104;52.744;15.242;2023-03-18T05:54:28;100521.16;;;19.92;39.69
70555;BME280;58104;52.744;15.242;2023-03-18T05:56:53;100523.60;;;19.98;39.90
70555;BME280;58104;52.744;15.242;2023-03-18T05:59:19;100517.31;;;19.97;39.93
70555;BME280;58104;52.744;15.242;2023-03-18T06:01:43;100515.47;;;19.98;39.76
70555;BME280;58104;52.744;15.242;2023-03-18T06:04:09;100514.86;;;19.86;40.87
70555;BME280;58104;52.744;15.242;2023-03-18T06:06:35;100516.25;;;19.98;40.64
70555;BME280;58104;52.744;15.242;2023-03-18T06:09:00;100516.87;;;19.97;40.58
70555;BME280;58104;52.744;15.242;2023-03-18T06:11:26;100515.04;;;20.04;40.50
70555;BME280;58104;52.744;15.242;2023-03-18T06:13:51;100513.54;;;20.07;39.70
70555;BME280;58104;52.744;15.242;2023-03-18T06:16:16;100514.74;;;20.28;38.97
70555;BME280;58104;52.744;15.242;2023-03-18T06:18:42;100515.39;;;20.34;38.35
70555;BME280;58104;52.744;15.242;2023-03-18T06:21:08;100514.44;;;20.23;37.59
70555;BME280;58104;52.744;15.242;2023-03-18T06:23:32;100511.49;;;19.35;35.29
70555;BME280;58104;52.744;15.242;2023-03-18T06:25:58;100513.13;;;18.97;34.69
70555;BME280;58104;52.744;15.242;2023-03-18T06:28:24;100516.77;;;18.77;34.52
70555;BME280;58104;52.744;15.242;2023-03-18T06:30:50;100519.84;;;18.48;34.50
70555;BME280;58104;52.744;15.242;2023-03-18T06:33:15;100522.13;;;18.35;33.84
70555;BME280;58104;52.744;15.242;2023-03-18T06:35:40;100525.55;;;17.65;32.51
70555;BME280;58104;52.744;15.242;2023-03-18T06:38:05;100523.64;;;17.15;33.23
70555;BME280;58104;52.744;15.242;2023-03-18T06:40:31;100523.30;;;16.82;34.05
70555;BME280;58104;52.744;15.242;2023-03-18T06:42:57;100528.26;;;16.64;33.93
70555;BME280;58104;52.744;15.242;2023-03-18T06:45:22;100523.42;;;16.88;32.90
70555;BME280;58104;52.744;15.242;2023-03-18T06:47:48;100516.78;;;16.69;33.28
70555;BME280;58104;52.744;15.242;2023-03-18T06:50:14;100519.16;;;16.38;33.23
70555;BME280;58104;52.744;15.242;2023-03-18T06:52:39;100527.10;;;16.27;32.34
70555;BME280;58104;52.744;15.242;2023-03-18T06:55:05;100525.08;;;16.25;32.63
70555;BME280;58104;52.744;15.242;2023-03-18T06:57:29;100518.66;;;16.66;34.40
70555;BME280;58104;52.744;15.242;2023-03-18T06:59:55;100520.95;;;16.86;33.06
70555;BME280;58104;52.744;15.242;2023-03-18T07:02:20;100519.70;;;16.55;33.10
70555;BME280;58104;52.744;15.242;2023-03-18T07:04:46;100526.33;;;16.56;32.97
70555;BME280;58104;52.744;15.242;2023-03-18T07:07:11;100535.97;;;17.01;34.01
70555;BME280;58104;52.744;15.242;2023-03-18T07:09:36;100537.16;;;17.21;32.26
70555;BME280;58104;52.744;15.242;2023-03-18T07:12:02;100532.81;;;16.85;32.67
70555;BME280;58104;52.744;15.242;2023-03-18T07:14:27;100538.71;;;16.54;32.68
70555;BME280;58104;52.744;15.242;2023-03-18T07:16:52;100540.97;;;16.65;32.57
70555;BME280;58104;52.744;15.242;2023-03-18T07:19:18;100546.56;;;16.84;32.70
70555;BME280;58104;52.744;15.242;2023-03-18T07:21:43;100545.14;;;16.59;32.66
70555;BME280;58104;52.744;15.242;2023-03-18T07:24:09;100552.33;;;16.45;32.44
70555;BME280;58104;52.744;15.242;2023-03-18T07:26:34;100549.67;;;16.19;32.42
70555;BME280;58104;52.744;15.242;2023-03-18T07:29:00;100553.60;;;16.33;33.31
70555;BME280;58104;52.744;15.242;2023-03-18T07:31:25;100557.81;;;16.19;33.30
70555;BME280;58104;52.744;15.242;2023-03-18T07:33:51;100558.54;;;16.38;33.42
70555;BME280;58104;52.744;15.242;2023-03-18T07:36:16;100556.24;;;16.27;32.63
70555;BME280;58104;52.744;15.242;2023-03-18T07:38:41;100556.83;;;16.29;33.33
70555;BME280;58104;52.744;15.242;2023-03-18T07:41:08;100562.29;;;16.36;32.77
70555;BME280;58104;52.744;15.242;2023-03-18T07:43:33;100555.89;;;16.59;34.57
70555;BME280;58104;52.744;15.242;2023-03-18T07:45:58;100558.08;;;16.93;33.33
70555;BME280;58104;52.744;15.242;2023-03-18T07:48:23;100553.64;;;16.83;32.81
70555;BME280;58104;52.744;15.242;2023-03-18T07:50:49;100551.95;;;16.61;32.32
70555;BME280;58104;52.744;15.242;2023-03-18T07:53:15;100550.44;;;16.68;33.22
70555;BME280;58104;52.744;15.242;2023-03-18T07:55:40;100550.43;;;16.44;33.45
70555;BME280;58104;52.744;15.242;2023-03-18T07:58:06;100550.07;;;16.60;32.87
70555;BME280;58104;52.744;15.242;2023-03-18T08:00:32;100552.59;;;16.90;32.91
70555;BME280;58104;52.744;15.242;2023-03-18T08:02:57;100550.36;;;16.57;32.41
70555;BME280;58104;52.744;15.242;2023-03-18T08:05:23;100554.96;;;16.51;32.71
70555;BME280;58104;52.744;15.242;2023-03-18T08:07:48;100553.26;;;16.30;32.00
70555;BME280;58104;52.744;15.242;2023-03-18T08:10:13;100554.93;;;16.28;32.73
70555;BME280;58104;52.744;15.242;2023-03-18T08:12:39;100549.35;;;16.47;32.66
70555;BME280;58104;52.744;15.242;2023-03-18T08:15:05;100544.88;;;16.64;33.74
70555;BME280;58104;52.744;15.242;2023-03-18T08:17:30;100541.81;;;16.74;32.11
70555;BME280;58104;52.744;15.242;2023-03-18T08:19:55;100542.77;;;16.57;33.02
70555;BME280;58104;52.744;15.242;2023-03-18T08:22:21;100547.10;;;16.52;33.31
70555;BME280;58104;52.744;15.242;2023-03-18T08:24:46;100549.88;;;16.79;33.40
70555;BME280;58104;52.744;15.242;2023-03-18T08:27:12;100548.38;;;16.81;33.45
70555;BME280;58104;52.744;15.242;2023-03-18T08:29:37;100553.03;;;17.04;32.96
70555;BME280;58104;52.744;15.242;2023-03-18T08:32:02;100549.80;;;16.95;32.04
70555;BME280;58104;52.744;15.242;2023-03-18T08:34:27;100552.83;;;17.02;32.74
70555;BME280;58104;52.744;15.242;2023-03-18T08:36:52;100553.08;;;17.02;33.78
70555;BME280;58104;52.744;15.242;2023-03-18T08:39:18;100551.24;;;17.06;32.01
70555;BME280;58104;52.744;15.242;2023-03-18T08:41:44;100548.36;;;16.98;31.88
70555;BME280;58104;52.744;15.242;2023-03-18T08:44:09;100544.10;;;17.04;32.20
70555;BME280;58104;52.744;15.242;2023-03-18T08:46:35;100545.61;;;16.90;33.27
70555;BME280;58104;52.744;15.242;2023-03-18T08:49:00;100543.24;;;17.16;33.01
70555;BME280;58104;52.744;15.242;2023-03-18T08:51:26;100543.85;;;17.25;32.46
70555;BME280;58104;52.744;15.242;2023-03-18T08:53:51;100547.35;;;17.38;32.43
70555;BME280;58104;52.744;15.242;2023-03-18T08:56:16;100545.93;;;17.42;32.20
70555;BME280;58104;52.744;15.242;2023-03-18T08:58:42;100544.41;;;17.20;32.91
70555;BME280;58104;52.744;15.242;2023-03-18T09:01:07;100548.96;;;17.39;32.75
70555;BME280;58104;52.744;15.242;2023-03-18T09:03:33;100546.61;;;17.37;32.17
70555;BME280;58104;52.744;15.242;2023-03-18T09:05:59;100551.34;;;17.37;32.84
70555;BME280;58104;52.744;15.242;2023-03-18T09:08:25;100551.59;;;17.52;32.31
70555;BME280;58104;52.744;15.242;2023-03-18T09:10:52;100553.87;;;17.68;32.46
70555;BME280;58104;52.744;15.242;2023-03-18T09:13:16;100554.96;;;17.72;31.10
70555;BME280;58104;52.744;15.242;2023-03-18T09:15:41;100550.85;;;17.49;31.52
70555;BME280;58104;52.744;15.242;2023-03-18T09:18:07;100550.08;;;17.55;31.73
70555;BME280;58104;52.744;15.242;2023-03-18T09:20:33;100550.02;;;17.46;32.05
70555;BME280;58104;52.744;15.242;2023-03-18T09:22:59;100552.91;;;17.38;32.17
70555;BME280;58104;52.744;15.242;2023-03-18T09:25:24;100561.52;;;17.55;31.88
70555;BME280;58104;52.744;15.242;2023-03-18T09:27:49;100561.13;;;17.59;31.61
70555;BME280;58104;52.744;15.242;2023-03-18T09:30:15;100563.79;;;17.53;31.96
70555;BME280;58104;52.744;15.242;2023-03-18T09:32:41;100563.80;;;17.70;31.60
70555;BME280;58104;52.744;15.242;2023-03-18T09:35:07;100566.03;;;17.66;31.07
70555;BME280;58104;52.744;15.242;2023-03-18T09:37:32;100571.06;;;17.78;30.91
70555;BME280;58104;52.744;15.242;2023-03-18T09:39:57;100569.15;;;17.95;30.67
70555;BME280;58104;52.744;15.242;2023-03-18T09:42:35;100573.19;;;18.06;31.14
70555;BME280;58104;52.744;15.242;2023-03-18T09:44:54;100581.78;;;18.48;30.78
70555;BME280;58104;52.744;15.242;2023-03-18T09:47:24;100590.40;;;18.57;29.38
70555;BME280;58104;52.744;15.242;2023-03-18T09:49:50;100594.00;;;18.67;30.78
70555;BME280;58104;52.744;15.242;2023-03-18T09:52:15;100592.75;;;18.62;29.24
70555;BME280;58104;52.744;15.242;2023-03-18T09:54:34;100590.20;;;18.86;29.22
70555;BME280;58104;52.744;15.242;2023-03-18T09:56:55;100589.08;;;18.79;29.10
70555;BME280;58104;52.744;15.242;2023-03-18T09:59:23;100587.56;;;18.99;29.08
70555;BME280;58104;52.744;15.242;2023-03-18T10:01:50;100590.86;;;18.69;28.71
70555;BME280;58104;52.744;15.242;2023-03-18T10:04:16;100585.25;;;18.27;27.87
70555;BME280;58104;52.744;15.242;2023-03-18T10:06:40;100586.49;;;17.89;28.79
70555;BME280;58104;52.744;15.242;2023-03-18T10:09:08;100591.62;;;17.91;29.38
70555;BME280;58104;52.744;15.242;2023-03-18T10:11:31;100592.54;;;18.36;29.77
70555;BME280;58104;52.744;15.242;2023-03-18T10:14:05;100600.72;;;18.89;28.64
70555;BME280;58104;52.744;15.242;2023-03-18T10:16:22;100594.15;;;19.17;28.27
70555;BME280;58104;52.744;15.242;2023-03-18T10:18:45;100601.04;;;19.55;28.16
70555;BME280;58104;52.744;15.242;2023-03-18T10:21:16;100602.23;;;19.61;28.45
70555;BME280;58104;52.744;15.242;2023-03-18T10:23:44;100599.16;;;19.09;28.03
70555;BME280;58104;52.744;15.242;2023-03-18T10:26:04;100600.78;;;18.98;27.86
70555;BME280;58104;52.744;15.242;2023-03-18T10:28:39;100599.07;;;19.16;27.75
70555;BME280;58104;52.744;15.242;2023-03-18T10:30:58;100602.66;;;19.30;27.54
70555;BME280;58104;52.744;15.242;2023-03-18T10:33:22;100601.65;;;19.37;27.35
70555;BME280;58104;52.744;15.242;2023-03-18T10:35:47;100606.44;;;19.36;27.55
70555;BME280;58104;52.744;15.242;2023-03-18T10:38:16;100609.21;;;19.35;27.34
70555;BME280;58104;52.744;15.242;2023-03-18T10:40:35;100607.60;;;19.67;27.22
70555;BME280;58104;52.744;15.242;2023-03-18T10:42:59;100608.20;;;19.54;26.93
70555;BME280;58104;52.744;15.242;2023-03-18T10:45:27;100609.59;;;19.78;27.10
70555;BME280;58104;52.744;15.242;2023-03-18T10:47:55;100608.42;;;19.56;26.94
70555;BME280;58104;52.744;15.242;2023-03-18T10:50:17;100612.28;;;19.46;27.07
70555;BME280;58104;52.744;15.242;2023-03-18T10:52:46;100605.52;;;19.26;27.41
70555;BME280;58104;52.744;15.242;2023-03-18T10:55:12;100606.52;;;19.47;27.11
70555;BME280;58104;52.744;15.242;2023-03-18T10:57:32;100605.53;;;19.49;27.12
70555;BME280;58104;52.744;15.242;2023-03-18T10:59:57;100603.02;;;19.52;27.14
70555;BME280;58104;52.744;15.242;2023-03-18T11:02:25;100607.40;;;19.62;27.17
70555;BME280;58104;52.744;15.242;2023-03-18T11:04:51;100606.66;;;19.59;27.16
70555;BME280;58104;52.744;15.242;2023-03-18T11:07:16;100608.23;;;19.31;27.35
70555;BME280;58104;52.744;15.242;2023-03-18T11:09:39;100608.82;;;19.21;27.46
70555;BME280;58104;52.744;15.242;2023-03-18T11:12:13;100608.48;;;19.16;27.57
70555;BME280;58104;52.744;15.242;2023-03-18T11:14:31;100615.40;;;19.48;27.86
70555;BME280;58104;52.744;15.242;2023-03-18T11:16:57;100615.01;;;19.85;27.75
70555;BME280;58104;52.744;15.242;2023-03-18T11:19:27;100614.16;;;19.76;27.84
70555;BME280;58104;52.744;15.242;2023-03-18T11:21:47;100611.16;;;19.76;27.93
70555;BME280;58104;52.744;15.242;2023-03-18T11:24:23;100610.72;;;19.87;27.75
70555;BME280;58104;52.744;15.242;2023-03-18T11:26:43;100609.90;;;19.79;28.22
70555;BME280;58104;52.744;15.242;2023-03-18T11:29:07;100604.83;;;19.84;27.91
70555;BME280;58104;52.744;15.242;2023-03-18T11:31:29;100607.10;;;19.73;28.11
70555;BME280;58104;52.744;15.242;2023-03-18T11:33:56;100603.88;;;19.90;28.24
70555;BME280;58104;52.744;15.242;2023-03-18T11:36:22;100597.64;;;19.96;28.02
70555;BME280;58104;52.744;15.242;2023-03-18T11:38:55;100594.41;;;19.76;28.23
70555;BME280;58104;52.744;15.242;2023-03-18T11:41:14;100603.04;;;19.92;28.51
70555;BME280;58104;52.744;15.242;2023-03-18T11:43:38;100612.81;;;19.99;28.68
70555;BME280;58104;52.744;15.242;2023-03-18T11:46:04;100609.82;;;19.74;28.37
70555;BME280;58104;52.744;15.242;2023-03-18T11:48:30;100600.94;;;19.63;28.40
70555;BME280;58104;52.744;15.242;2023-03-18T11:53:26;100601.43;;;19.25;28.84
70555;BME280;58104;52.744;15.242;2023-03-18T11:55:47;100600.60;;;19.47;28.52
70555;BME280;58104;52.744;15.242;2023-03-18T12:00:37;100605.87;;;19.78;28.20
70555;BME280;58104;52.744;15.242;2023-03-18T12:05:38;100610.43;;;20.21;28.73
70555;BME280;58104;52.744;15.242;2023-03-18T12:08:01;100606.55;;;20.27;29.13
70555;BME280;58104;52.744;15.242;2023-03-18T12:10:22;100601.66;;;20.53;28.82
70555;BME280;58104;52.744;15.242;2023-03-18T12:12:50;100607.05;;;20.48;27.93
70555;BME280;58104;52.744;15.242;2023-03-18T12:15:15;100605.20;;;20.19;28.01
70555;BME280;58104;52.744;15.242;2023-03-18T12:17:41;100603.86;;;19.99;28.02
70555;BME280;58104;52.744;15.242;2023-03-18T12:20:09;100604.80;;;19.88;28.36
70555;BME280;58104;52.744;15.242;2023-03-18T12:22:35;100603.93;;;19.97;28.13
70555;BME280;58104;52.744;15.242;2023-03-18T12:25:01;100600.88;;;20.15;28.11
70555;BME280;58104;52.744;15.242;2023-03-18T12:27:21;100599.26;;;20.21;27.87
70555;BME280;58104;52.744;15.242;2023-03-18T12:29:49;100603.16;;;20.28;27.81
70555;BME280;58104;52.744;15.242;2023-03-18T12:32:13;100604.69;;;20.67;27.31
70555;BME280;58104;52.744;15.242;2023-03-18T12:34:43;100607.51;;;20.48;27.17
70555;BME280;58104;52.744;15.242;2023-03-18T12:37:07;100609.64;;;20.43;27.33
70555;BME280;58104;52.744;15.242;2023-03-18T12:39:37;100609.89;;;20.44;27.57